Time;durP1;ratioP1;P1;durP2;ratioP2;P2;SDS_P1;SDS_P2;PMS_P1;PMS_P2;Temp;Humidity;BMP_temperature;BMP_pressure;BME280_temperature;BME280_humidity;BME280_pressure;Samples;Min_cycle;Max_cycle;Signal;HPM_P1;HPM_P2
2023/07/21 00:00:10;;;;;;;2.20;1.90;;;;;;;14.38;100.00;98732.23;105861;1256;72653;-71
2023/07/21 00:02:38;;;;;;;;;;;;;;;14.35;100.00;98732.38;105891;1256;61985;-72
2023/07/21 00:05:05;;;;;;;3.60;2.00;;;;;;;14.32;100.00;98736.76;105889;1253;60556;-73
2023/07/21 00:07:32;;;;;;;3.00;2.20;;;;;;;14.27;100.00;98737.02;105868;1253;73849;-73
2023/07/21 00:09:59;;;;;;;2.60;2.40;;;;;;;14.24;100.00;98739.55;105816;1254;67854;-73
2023/07/21 00:12:28;;;;;;;2.00;1.70;;;;;;;14.22;100.00;98737.71;105763;1256;71263;-73
2023/07/21 00:14:55;;;;;;;2.80;2.60;;;;;;;14.19;100.00;98736.15;105807;1254;61944;-72
2023/07/21 00:17:22;;;;;;;2.10;1.90;;;;;;;14.15;100.00;98729.41;105719;1254;60459;-71
2023/07/21 00:19:48;;;;;;;2.70;2.10;;;;;;;14.11;100.00;98737.13;105778;1256;73740;-72
2023/07/21 00:22:15;;;;;;;3.30;2.20;;;;;;;14.09;100.00;98740.02;105841;1255;67861;-76
2023/07/21 00:24:42;;;;;;;5.10;2.30;;;;;;;14.08;100.00;98738.52;105869;1252;72551;-73
2023/07/21 00:27:11;;;;;;;2.40;1.80;;;;;;;14.09;100.00;98739.52;105931;1254;62052;-72
2023/07/21 00:29:38;;;;;;;3.90;1.80;;;;;;;14.07;100.00;98738.86;105887;1253;60437;-76
2023/07/21 00:32:05;;;;;;;3.50;2.20;;;;;;;14.05;100.00;98740.27;105994;1257;73834;-74
2023/07/21 00:34:32;;;;;;;2.70;2.50;;;;;;;14.03;100.00;98744.80;105964;1254;67665;-72
2023/07/21 00:36:59;;;;;;;5.00;2.10;;;;;;;14.03;100.00;98745.91;105929;1257;72771;-72
2023/07/21 00:39:26;;;;;;;2.50;2.30;;;;;;;14.04;100.00;98744.42;105811;1254;62040;-73
2023/07/21 00:41:52;;;;;;;2.50;2.00;;;;;;;14.05;100.00;98743.27;105795;1254;60511;-72
2023/07/21 00:44:19;;;;;;;3.10;2.80;;;;;;;14.07;100.00;98742.32;105784;1257;74445;-72
2023/07/21 00:46:46;;;;;;;2.60;2.30;;;;;;;14.09;100.00;98745.27;105843;1257;67872;-72
2023/07/21 00:49:13;;;;;;;4.60;2.40;;;;;;;14.10;100.00;98747.80;105767;1257;72531;-72
2023/07/21 00:51:40;;;;;;;3.30;3.00;;;;;;;14.09;100.00;98746.64;105867;1254;61917;-72
2023/07/21 00:54:07;;;;;;;2.90;2.30;;;;;;;14.09;100.00;98752.06;105679;1254;60449;-72
2023/07/21 00:56:36;;;;;;;3.20;2.90;;;;;;;14.10;100.00;98760.02;105860;1257;73748;-72
2023/07/21 00:59:03;;;;;;;2.60;2.40;;;;;;;14.13;100.00;98757.66;105884;1254;60523;-73
2023/07/21 01:01:30;;;;;;;2.60;2.30;;;;;;;14.14;100.00;98758.80;105738;1254;72620;-72
2023/07/21 01:03:57;;;;;;;3.50;2.60;;;;;;;14.14;100.00;98757.40;105879;1253;61768;-72
2023/07/21 01:06:27;;;;;;;2.90;2.50;;;;;;;14.13;100.00;98756.52;105796;1254;60504;-72
2023/07/21 01:08:56;;;;;;;2.80;2.30;;;;;;;14.14;100.00;98755.80;105927;1257;71779;-73
2023/07/21 01:11:24;;;;;;;2.60;2.40;;;;;;;14.13;100.00;98754.83;105802;1254;67924;-73
2023/07/21 01:13:53;;;;;;;3.90;2.50;;;;;;;14.12;100.00;98752.30;105665;1256;72755;-72
2023/07/21 01:16:22;;;;;;;3.20;2.20;;;;;;;14.11;100.00;98747.13;105840;1251;62017;-72
2023/07/21 01:18:50;;;;;;;3.90;2.30;;;;;;;14.11;100.00;98744.25;105853;1254;60427;-73
2023/07/21 01:21:25;;;;;;;2.10;1.70;;;;;;;14.08;100.00;98747.72;105750;1256;72812;-73
2023/07/21 01:23:58;;;;;;;2.00;1.90;;;;;;;14.06;100.00;98746.68;105862;1253;67676;-73
2023/07/21 01:26:28;;;;;;;2.10;1.90;;;;;;;14.05;100.00;98745.95;105842;1257;71357;-75
2023/07/21 01:28:55;;;;;;;2.30;2.10;;;;;;;14.04;100.00;98744.72;105699;1256;61860;-72
2023/07/21 01:31:23;;;;;;;3.20;1.90;;;;;;;14.02;100.00;98748.20;105845;1254;60402;-73
2023/07/21 01:33:50;;;;;;;2.50;2.30;;;;;;;14.03;100.00;98745.01;105828;1255;73694;-73
2023/07/21 01:36:17;;;;;;;2.20;1.90;;;;;;;14.03;100.00;98744.27;105753;1256;67895;-74
2023/07/21 01:38:44;;;;;;;2.20;2.10;;;;;;;14.03;100.00;98750.15;105657;1251;72871;-72
2023/07/21 01:41:12;;;;;;;1.80;1.70;;;;;;;14.04;100.00;98753.27;105747;1254;60621;-73
2023/07/21 01:43:39;;;;;;;4.20;2.10;;;;;;;14.05;100.00;98754.18;105896;1253;60607;-74
2023/07/21 01:46:09;;;;;;;2.50;1.90;;;;;;;14.06;100.00;98751.41;105668;1259;73772;-73
2023/07/21 01:48:36;;;;;;;2.20;2.10;;;;;;;14.06;100.00;98755.24;105771;1254;67866;-73
2023/07/21 01:51:03;;;;;;;2.10;1.90;;;;;;;14.08;100.00;98752.86;105811;1257;72632;-73
2023/07/21 01:53:31;;;;;;;2.50;2.30;;;;;;;14.12;100.00;98753.71;105850;1251;61689;-74
2023/07/21 01:56:28;;;;;;;2.20;2.00;;;;;;;14.13;100.00;98751.33;105818;1256;60428;-75
2023/07/21 01:58:59;;;;;;;3.30;2.60;;;;;;;14.14;100.00;98752.52;105800;1255;73718;-72
2023/07/21 02:01:26;;;;;;;5.20;2.80;;;;;;;14.16;100.00;98755.34;106027;1256;68514;-77
2023/07/21 02:03:55;;;;;;;3.40;2.30;;;;;;;14.15;100.00;98759.26;105853;1251;72472;-75
2023/07/21 02:06:22;;;;;;;2.70;2.50;;;;;;;14.14;100.00;98766.66;105849;1254;62340;-72
2023/07/21 02:08:49;;;;;;;2.80;2.50;;;;;;;14.13;100.00;98771.39;105916;1251;60434;-72
2023/07/21 02:11:16;;;;;;;2.80;2.50;;;;;;;14.12;100.00;98773.30;105798;1257;73687;-73
2023/07/21 02:14:02;;;;;;;3.20;2.90;;;;;;;14.09;100.00;98775.86;105803;1257;65813;-73
2023/07/21 02:16:31;;;;;;;2.90;2.70;;;;;;;14.08;100.00;98777.41;105805;1255;72732;-71
2023/07/21 02:18:58;;;;;;;2.90;2.50;;;;;;;14.06;100.00;98777.19;105840;1255;61919;-72
2023/07/21 02:21:25;;;;;;;4.30;3.70;;;;;;;14.03;100.00;98784.64;105804;1254;60920;-72
2023/07/21 02:23:52;;;;;;;3.70;3.30;;;;;;;13.99;100.00;98784.97;105830;1256;73770;-72
2023/07/21 02:26:21;;;;;;;4.90;3.60;;;;;;;13.96;100.00;98791.80;105876;1251;67850;-72
2023/07/21 02:28:48;;;;;;;4.00;3.30;;;;;;;13.93;100.00;98798.91;105826;1255;72723;-73
2023/07/21 02:31:15;;;;;;;9.60;3.10;;;;;;;13.89;100.00;98798.60;105756;1251;62284;-73
2023/07/21 02:33:43;;;;;;;3.00;2.80;;;;;;;13.87;100.00;98805.98;105741;1253;60457;-72
2023/07/21 02:36:09;;;;;;;3.60;3.20;;;;;;;13.86;100.00;98810.53;105823;1253;73838;-73
2023/07/21 02:38:37;;;;;;;5.20;2.80;;;;;;;13.83;100.00;98811.44;105777;1252;67955;-73
2023/07/21 02:41:04;;;;;;;3.80;3.40;;;;;;;13.80;100.00;98810.54;105713;1254;72510;-72
2023/07/21 02:43:32;;;;;;;3.50;3.20;;;;;;;13.78;100.00;98818.18;105798;1254;62040;-73
2023/07/21 02:45:59;;;;;;;6.00;4.70;;;;;;;13.76;100.00;98819.34;105801;1254;60405;-74
2023/07/21 02:48:26;;;;;;;4.40;3.30;;;;;;;13.75;100.00;98823.00;105776;1257;73623;-71
2023/07/21 02:50:55;;;;;;;7.50;4.00;;;;;;;13.74;100.00;98826.56;105630;1254;67850;-72
2023/07/21 02:53:22;;;;;;;5.00;3.20;;;;;;;13.73;100.00;98832.02;105848;1251;72738;-72
2023/07/21 02:55:53;;;;;;;4.50;3.30;;;;;;;13.74;100.00;98834.80;106030;1254;61875;-72
2023/07/21 02:58:23;;;;;;;5.50;3.80;;;;;;;13.74;100.00;98843.23;105895;1252;60514;-72
2023/07/21 03:00:49;;;;;;;4.20;3.90;;;;;;;13.75;100.00;98844.18;105796;1256;74290;-71
2023/07/21 03:03:20;;;;;;;3.30;3.10;;;;;;;13.72;100.00;98838.17;105730;1254;68471;-72
2023/07/21 03:05:48;;;;;;;3.40;3.10;;;;;;;13.79;100.00;98845.66;105685;1252;73102;-72
2023/07/21 03:08:14;;;;;;;4.70;3.10;;;;;;;13.83;100.00;98852.81;105702;1253;61810;-73
2023/07/21 03:10:42;;;;;;;4.20;3.00;;;;;;;13.86;100.00;98858.95;105733;1254;60379;-72
2023/07/21 03:13:09;;;;;;;5.30;3.30;;;;;;;13.93;100.00;98865.48;105716;1257;73684;-73
2023/07/21 03:15:38;;;;;;;6.90;3.30;;;;;;;14.07;100.00;98868.06;105814;1254;67835;-72
2023/07/21 03:18:08;;;;;;;4.40;3.70;;;;;;;14.13;100.00;98866.87;105855;1256;71597;-72
2023/07/21 03:20:49;;;;;;;3.30;3.00;;;;;;;14.14;100.00;98864.88;105811;1256;61940;-72
2023/07/21 03:23:16;;;;;;;3.80;3.50;;;;;;;14.18;100.00;98862.54;105916;1256;60459;-73
2023/07/21 03:25:46;;;;;;;4.50;3.20;;;;;;;14.25;100.00;98857.88;105760;1251;73832;-72
2023/07/21 03:28:13;;;;;;;3.10;2.80;;;;;;;14.39;100.00;98860.72;105852;1257;67745;-72
2023/07/21 03:30:41;;;;;;;2.80;2.50;;;;;;;14.62;100.00;98860.73;105875;1256;72470;-72
2023/07/21 03:33:17;;;;;;;3.00;2.20;;;;;;;14.89;100.00;98865.58;105884;1256;61838;-75
2023/07/21 03:35:46;;;;;;;4.00;3.00;;;;;;;15.21;100.00;98867.70;105894;1253;60552;-72
2023/07/21 03:38:14;;;;;;;3.60;3.20;;;;;;;15.46;100.00;98870.95;105787;1255;72580;-74
2023/07/21 03:40:41;;;;;;;3.10;2.40;;;;;;;15.70;100.00;98873.81;105786;1254;67979;-74
2023/07/21 03:43:08;;;;;;;3.00;2.70;;;;;;;16.00;100.00;98866.97;105905;1256;72737;-71
2023/07/21 03:45:36;;;;;;;3.60;3.20;;;;;;;16.24;100.00;98868.33;106026;1254;61847;-74
2023/07/21 03:48:02;;;;;;;3.90;3.10;;;;;;;16.50;100.00;98866.73;105805;1252;60319;-73
2023/07/21 03:50:30;;;;;;;3.50;3.20;;;;;;;16.76;100.00;98865.15;105745;1254;73816;-73
2023/07/21 03:52:57;;;;;;;3.30;3.00;;;;;;;16.96;100.00;98866.45;105761;1257;66487;-74
2023/07/21 03:55:24;;;;;;;3.60;3.30;;;;;;;17.15;100.00;98865.16;105883;1254;72648;-73
2023/07/21 03:57:51;;;;;;;4.50;3.00;;;;;;;17.37;100.00;98857.50;105857;1251;61839;-72
2023/07/21 04:00:18;;;;;;;3.90;3.20;;;;;;;17.56;100.00;98852.27;105847;1253;60415;-73
2023/07/21 04:02:45;;;;;;;3.60;2.80;;;;;;;17.78;100.00;98845.91;105735;1256;74109;-71
2023/07/21 04:05:13;;;;;;;3.30;2.60;;;;;;;17.92;100.00;98840.98;105790;1251;67692;-71
2023/07/21 04:07:40;;;;;;;3.00;2.70;;;;;;;18.20;100.00;98842.15;105810;1256;72573;-73
2023/07/21 04:10:08;;;;;;;3.50;3.00;;;;;;;18.47;100.00;98839.80;105789;1251;60424;-73
2023/07/21 04:12:35;;;;;;;4.40;3.10;;;;;;;18.69;100.00;98841.42;105862;1251;60447;-75
2023/07/21 04:15:01;;;;;;;3.00;2.80;;;;;;;18.92;100.00;98849.17;105775;1257;74605;-73
2023/07/21 04:17:29;;;;;;;3.50;2.80;;;;;;;19.12;100.00;98849.30;105789;1253;68064;-74
2023/07/21 04:19:57;;;;;;;6.50;2.70;;;;;;;19.33;100.00;98841.95;105832;1251;72383;-73
2023/07/21 04:22:24;;;;;;;3.80;3.50;;;;;;;19.57;100.00;98840.03;105877;1254;60404;-73
2023/07/21 04:24:51;;;;;;;3.80;3.50;;;;;;;19.77;100.00;98836.04;105731;1256;60396;-73
2023/07/21 04:27:19;;;;;;;6.10;3.20;;;;;;;19.99;100.00;98833.27;105862;1254;73770;-73
2023/07/21 04:29:46;;;;;;;3.70;3.10;;;;;;;20.27;100.00;98836.69;105814;1251;68441;-73
2023/07/21 04:32:14;;;;;;;3.60;3.10;;;;;;;20.55;100.00;98837.48;105847;1251;72668;-74
2023/07/21 04:34:42;;;;;;;4.10;3.00;;;;;;;20.76;100.00;98839.27;105870;1251;61779;-74
2023/07/21 04:37:09;;;;;;;6.10;2.90;;;;;;;20.97;100.00;98842.20;105685;1253;60376;-77
2023/07/21 04:39:37;;;;;;;3.30;2.90;;;;;;;21.28;100.00;98839.01;105955;1256;73503;-74
2023/07/21 04:42:05;;;;;;;3.40;2.70;;;;;;;21.44;100.00;98837.27;105827;1251;67959;-72
2023/07/21 04:44:32;;;;;;;3.70;2.70;;;;;;;21.58;100.00;98835.58;105903;1257;72525;-73
2023/07/21 04:46:59;;;;;;;3.30;3.10;;;;;;;21.67;100.00;98838.52;105877;1254;60459;-74
2023/07/21 04:49:33;;;;;;;2.90;2.70;;;;;;;21.82;100.00;98840.44;105894;1252;60482;-74
2023/07/21 04:52:00;;;;;;;3.70;2.90;;;;;;;21.99;100.00;98838.56;105834;1251;72486;-73
2023/07/21 04:54:27;;;;;;;2.40;2.20;;;;;;;22.14;100.00;98838.23;105887;1251;67844;-74
2023/07/21 04:56:54;;;;;;;3.20;2.30;;;;;;;22.29;100.00;98838.82;105848;1255;72625;-73
2023/07/21 04:59:21;;;;;;;4.70;2.10;;;;;;;22.40;100.00;98838.62;105794;1256;60574;-74
2023/07/21 05:01:48;;;;;;;3.80;2.60;;;;;;;22.48;100.00;98841.48;105771;1256;60347;-74
2023/07/21 05:04:16;;;;;;;2.50;2.30;;;;;;;22.61;100.00;98837.98;105752;1252;72693;-72
2023/07/21 05:06:44;;;;;;;2.10;2.00;;;;;;;22.82;100.00;98840.23;106051;1254;67751;-72
2023/07/21 05:09:13;;;;;;;1.90;1.80;;;;;;;22.96;100.00;98843.81;105819;1254;72730;-73
2023/07/21 05:11:41;;;;;;;3.60;2.30;;;;;;;23.04;100.00;98842.11;105767;1254;60552;-73
2023/07/21 05:14:08;;;;;;;4.60;2.10;;;;;;;23.15;100.00;98843.55;105897;1251;60351;-73
2023/07/21 05:16:54;;;;;;;;;;;;;;;23.31;100.00;98846.11;105853;1256;73967;-74
2023/07/21 05:19:44;;;;;;;2.40;2.20;;;;;;;23.53;100.00;98849.38;109606;1251;67962;-73
2023/07/21 05:22:32;;;;;;;3.70;2.20;;;;;;;23.77;100.00;98850.77;109499;1253;72515;-73
2023/07/21 05:25:05;;;;;;;6.60;2.30;;;;;;;23.89;100.00;98859.30;109619;1251;60385;-74
2023/07/21 05:27:34;;;;;;;4.50;2.10;;;;;;;24.02;100.00;98861.10;109625;1251;60080;-74
2023/07/21 05:30:05;;;;;;;2.40;2.20;;;;;;;24.21;100.00;98864.05;109570;1251;73650;-74
2023/07/21 05:32:34;;;;;;;4.00;2.20;;;;;;;24.44;100.00;98861.91;109501;1251;67917;-72
2023/07/21 05:35:09;;;;;;;3.70;2.40;;;;;;;24.63;100.00;98867.70;109530;1251;71873;-72
2023/07/21 05:37:37;;;;;;;2.60;1.80;;;;;;;24.84;100.00;98862.11;109550;1251;60411;-72
2023/07/21 05:40:06;;;;;;;6.90;2.40;;;;;;;24.99;100.00;98866.95;109483;1254;58758;-72
2023/07/21 05:42:32;;;;;;;2.50;2.10;;;;;;;25.13;100.00;98867.00;109563;1251;72484;-74
2023/07/21 05:45:02;;;;;;;2.50;1.80;;;;;;;25.22;99.87;98870.61;109453;1251;66892;-73
2023/07/21 05:47:30;;;;;;;4.80;1.90;;;;;;;25.30;99.76;98868.92;109532;1251;71927;-73
2023/07/21 05:50:01;;;;;;;1.90;1.70;;;;;;;25.36;98.44;98872.32;109567;1251;61065;-73
2023/07/21 05:52:29;;;;;;;2.90;2.00;;;;;;;25.40;98.17;98874.26;109576;1252;60057;-74
2023/07/21 05:54:56;;;;;;;2.80;1.60;;;;;;;25.52;97.40;98869.82;109580;1251;73651;-71
2023/07/21 05:57:26;;;;;;;3.40;1.80;;;;;;;25.64;96.90;98868.59;109544;1251;66888;-68
2023/07/21 05:59:53;;;;;;;2.40;1.80;;;;;;;25.81;95.59;98867.21;109583;1251;72807;-73
2023/07/21 06:02:20;;;;;;;3.30;1.60;;;;;;;26.00;93.72;98864.75;109497;1252;58540;-73
2023/07/21 06:04:56;;;;;;;3.50;1.90;;;;;;;26.09;92.41;98867.89;109495;1251;60113;-72
2023/07/21 06:07:45;;;;;;;1.50;1.40;;;;;;;26.21;91.15;98866.34;109573;1251;73932;-72
2023/07/21 06:10:12;;;;;;;2.40;1.50;;;;;;;26.29;88.90;98866.20;109597;1251;66907;-70
2023/07/21 06:13:14;;;;;;;1.70;1.60;;;;;;;26.35;86.70;98865.88;108805;1258;71199;-72
2023/07/21 06:15:59;;;;;;;2.90;1.70;;;;;;;26.37;85.91;98863.58;109508;1251;60053;-72
2023/07/21 06:18:35;;;;;;;4.00;1.70;;;;;;;26.47;84.22;98863.85;109542;1251;60175;-72
2023/07/21 06:21:03;;;;;;;1.90;1.50;;;;;;;26.57;83.79;98858.02;109550;1251;73630;-72
2023/07/21 06:23:30;;;;;;;3.00;1.30;;;;;;;26.76;82.52;98857.36;109590;1251;67600;-73
2023/07/21 06:25:57;;;;;;;2.90;1.50;;;;;;;26.96;81.02;98856.50;109544;1251;72463;-73
2023/07/21 06:28:24;;;;;;;2.00;1.80;;;;;;;27.16;78.84;98854.09;109542;1251;60385;-73
2023/07/21 06:30:51;;;;;;;3.20;1.60;;;;;;;27.15;74.57;98856.60;109545;1251;60592;-72
2023/07/21 06:33:44;;;;;;;2.00;1.50;;;;;;;26.96;74.87;98855.64;109484;1251;73861;-72
2023/07/21 06:36:49;;;;;;;2.20;1.60;;;;;;;27.05;74.90;98855.31;108938;1258;67884;-77
2023/07/21 06:39:36;;;;;;;2.50;1.20;;;;;;;27.24;74.05;98855.00;108912;1259;71622;-73
2023/07/21 06:42:13;;;;;;;2.10;1.50;;;;;;;27.45;73.98;98856.70;109319;1251;59007;-73
2023/07/21 06:45:04;;;;;;;1.80;1.50;;;;;;;27.67;71.82;98860.45;109294;1251;60556;-72
2023/07/21 06:47:48;;;;;;;2.40;1.50;;;;;;;27.78;69.45;98862.19;109533;1251;73761;-72
2023/07/21 06:50:54;;;;;;;2.50;1.40;;;;;;;27.79;67.98;98860.38;109437;1254;67862;-72
2023/07/21 06:53:22;;;;;;;3.70;1.70;;;;;;;27.75;68.38;98858.13;109444;1253;72666;-73
2023/07/21 06:55:49;;;;;;;2.30;1.50;;;;;;;27.78;67.46;98862.79;109582;1251;59062;-70
2023/07/21 06:58:16;;;;;;;2.70;1.50;;;;;;;27.83;67.88;98861.44;109564;1253;60301;-74
2023/07/21 07:00:43;;;;;;;2.60;1.50;;;;;;;27.91;66.61;98863.55;109509;1251;73777;-73
2023/07/21 07:03:10;;;;;;;1.70;1.30;;;;;;;27.95;66.65;98860.48;109529;1251;66555;-73
2023/07/21 07:05:37;;;;;;;3.70;1.40;;;;;;;28.05;66.39;98857.94;109560;1253;72664;-75
2023/07/21 07:08:04;;;;;;;1.40;1.30;;;;;;;28.21;65.70;98860.09;109552;1251;58774;-73
2023/07/21 07:10:31;;;;;;;1.00;1.00;;;;;;;28.40;63.40;98860.67;109573;1252;58837;-73
2023/07/21 07:12:58;;;;;;;1.30;1.10;;;;;;;28.62;61.48;98855.10;109624;1251;73533;-72
2023/07/21 07:15:25;;;;;;;1.20;0.90;;;;;;;28.83;58.68;98848.28;109428;1252;196930;-74
2023/07/21 07:17:51;;;;;;;1.80;1.10;;;;;;;28.99;56.25;98853.23;109523;1251;72675;-78
2023/07/21 07:20:18;;;;;;;0.90;0.80;;;;;;;29.11;55.67;98848.05;109553;1251;59339;-75
2023/07/21 07:22:45;;;;;;;1.70;1.30;;;;;;;29.27;55.20;98846.45;109570;1253;60000;-74
2023/07/21 07:25:12;;;;;;;2.60;1.30;;;;;;;29.40;55.26;98843.51;109597;1251;58173;-73
2023/07/21 07:27:40;;;;;;;1.30;1.20;;;;;;;29.44;54.69;98845.65;109505;1251;66150;-75
2023/07/21 07:30:07;;;;;;;6.30;1.10;;;;;;;29.43;53.22;98847.11;109531;1251;72664;-72
2023/07/21 07:32:34;;;;;;;2.00;0.90;;;;;;;29.44;52.09;98848.93;109589;1251;58373;-73
2023/07/21 07:35:01;;;;;;;2.20;1.10;;;;;;;29.51;52.15;98849.39;109568;1251;60206;-72
2023/07/21 07:37:29;;;;;;;2.40;1.20;;;;;;;29.64;52.07;98851.02;109559;1251;74072;-72
2023/07/21 07:39:55;;;;;;;1.70;1.10;;;;;;;29.80;51.62;98854.15;109576;1253;58351;-71
2023/07/21 07:42:23;;;;;;;3.50;1.10;;;;;;;29.94;51.42;98846.96;109559;1251;72334;-73
2023/07/21 07:44:54;;;;;;;3.60;1.30;;;;;;;30.08;50.43;98847.00;109559;1254;58849;-73
2023/07/21 07:47:21;;;;;;;1.30;1.20;;;;;;;30.20;50.13;98848.55;109585;1251;60157;-73
2023/07/21 07:49:48;;;;;;;1.20;1.00;;;;;;;30.45;48.55;98851.55;109644;1251;72450;-72
2023/07/21 07:52:17;;;;;;;1.10;0.90;;;;;;;30.67;47.18;98855.23;109632;1251;67845;-73
2023/07/21 07:54:44;;;;;;;1.80;0.80;;;;;;;30.86;45.96;98853.89;109564;1254;72355;-73
2023/07/21 07:57:11;;;;;;;2.00;1.10;;;;;;;30.95;44.44;98854.24;109605;1251;58814;-73
2023/07/21 07:59:41;;;;;;;1.90;0.80;;;;;;;30.93;43.16;98852.55;109620;1251;60746;-73
2023/07/21 08:02:08;;;;;;;3.50;1.10;;;;;;;30.98;43.21;98859.23;109611;1251;72897;-72
2023/07/21 08:04:35;;;;;;;2.20;1.60;;;;;;;31.10;43.30;98860.59;109576;1251;67845;-72
2023/07/21 08:07:02;;;;;;;1.50;0.80;;;;;;;31.03;43.61;98861.98;109506;1251;71317;-73
2023/07/21 08:09:29;;;;;;;0.80;0.80;;;;;;;30.86;43.35;98870.04;109605;1251;60139;-72
2023/07/21 08:11:56;;;;;;;4.50;0.70;;;;;;;30.85;43.43;98870.84;109590;1251;58279;-73
2023/07/21 08:14:26;;;;;;;3.60;1.10;;;;;;;30.95;43.10;98866.61;109579;1251;72725;-73
2023/07/21 08:16:54;;;;;;;2.00;0.90;;;;;;;31.02;42.73;98867.61;109569;1251;67778;-74
2023/07/21 08:19:22;;;;;;;2.30;1.10;;;;;;;31.08;42.80;98871.40;109606;1251;72379;-72
2023/07/21 08:21:48;;;;;;;1.60;0.90;;;;;;;31.26;42.38;98872.65;109602;1251;58800;-71
2023/07/21 08:24:16;;;;;;;7.00;1.20;;;;;;;31.52;41.72;98875.34;109584;1251;60210;-72
2023/07/21 08:26:42;;;;;;;1.00;0.70;;;;;;;31.69;40.22;98875.84;109607;1251;72550;-72
2023/07/21 08:29:09;;;;;;;1.90;0.80;;;;;;;31.70;38.96;98873.15;109604;1251;67869;-74
2023/07/21 08:31:37;;;;;;;1.20;0.70;;;;;;;31.84;39.07;98872.48;109606;1251;71332;-71
2023/07/21 08:34:05;;;;;;;1.20;0.80;;;;;;;32.00;38.67;98876.70;109601;1251;58839;-73
2023/07/21 08:36:32;;;;;;;1.60;1.10;;;;;;;31.99;38.50;98882.88;109582;1251;58851;-72
2023/07/21 08:39:18;;;;;;;2.70;1.10;;;;;;;31.89;39.63;98885.88;109584;1251;73805;-73
2023/07/21 08:41:46;;;;;;;0.90;0.70;;;;;;;31.90;39.50;98881.67;109593;1251;66311;-72
2023/07/21 08:44:13;;;;;;;1.30;0.80;;;;;;;31.95;39.58;98881.67;109582;1251;71653;-72
2023/07/21 08:46:39;;;;;;;1.20;1.00;;;;;;;32.22;38.30;98885.11;109406;1253;60388;-72
2023/07/21 08:49:06;;;;;;;5.30;1.10;;;;;;;32.41;37.35;98884.28;109625;1255;59034;-73
2023/07/21 08:51:34;;;;;;;1.20;0.90;;;;;;;32.54;36.90;98883.00;109545;1252;72941;-72
2023/07/21 08:54:01;;;;;;;1.30;0.90;;;;;;;32.66;36.65;98882.35;109568;1251;67686;-72
2023/07/21 08:56:28;;;;;;;1.60;0.80;;;;;;;32.42;36.51;98883.00;109568;1251;72757;-72
2023/07/21 08:58:54;;;;;;;2.20;0.90;;;;;;;32.21;36.97;98879.09;109607;1251;58842;-73
2023/07/21 09:01:21;;;;;;;1.10;0.70;;;;;;;32.15;36.49;98884.19;109514;1251;58212;-74
2023/07/21 09:03:48;;;;;;;2.10;0.90;;;;;;;32.08;36.43;98886.20;109601;1251;72364;-72
2023/07/21 09:06:15;;;;;;;2.60;0.70;;;;;;;32.31;36.11;98891.63;109598;1251;68114;-72
2023/07/21 09:08:45;;;;;;;0.70;0.60;;;;;;;32.62;35.79;98894.17;109558;1253;71347;-74
2023/07/21 09:11:12;;;;;;;0.60;0.60;;;;;;;32.34;35.42;98897.36;109592;1251;59111;-72
2023/07/21 09:13:38;;;;;;;1.40;0.50;;;;;;;32.14;35.99;98893.64;109588;1251;58195;-72
2023/07/21 09:16:09;;;;;;;0.60;0.60;;;;;;;32.36;36.03;98893.17;109604;1252;74225;-73
2023/07/21 09:18:40;;;;;;;1.20;0.90;;;;;;;32.69;35.24;98893.64;109624;1251;67835;-71
2023/07/21 09:21:07;;;;;;;3.90;0.80;;;;;;;32.81;34.81;98891.95;109560;1251;72668;-72
2023/07/21 09:23:35;;;;;;;2.90;0.90;;;;;;;32.88;35.14;98893.66;109559;1251;59819;-72
2023/07/21 09:26:02;;;;;;;0.70;0.50;;;;;;;33.26;34.52;98895.00;109430;1257;59548;-73
2023/07/21 09:28:55;;;;;;;2.50;0.60;;;;;;;33.34;33.03;98889.25;109581;1251;72249;-73
2023/07/21 09:31:34;;;;;;;0.80;0.60;;;;;;;32.95;33.29;98900.70;109558;1251;68003;-72
2023/07/21 09:34:05;;;;;;;0.50;0.50;;;;;;;33.21;33.58;98897.63;109594;1252;71771;-73
2023/07/21 09:36:32;;;;;;;1.40;0.70;;;;;;;33.28;32.76;98897.35;109546;1251;60363;-72
2023/07/21 09:39:04;;;;;;;2.60;0.90;;;;;;;32.66;33.20;98897.98;109534;1251;59041;-72
2023/07/21 09:41:34;;;;;;;4.30;0.90;;;;;;;32.10;34.68;98903.66;109636;1251;73797;-72
2023/07/21 09:44:00;;;;;;;0.60;0.60;;;;;;;31.74;34.93;98902.93;109622;1252;67677;-72
2023/07/21 09:46:27;;;;;;;0.60;0.50;;;;;;;31.29;34.40;98903.50;109586;1251;73096;-72
2023/07/21 09:48:54;;;;;;;3.10;0.50;;;;;;;30.63;34.65;98906.08;109508;1251;61752;-72
2023/07/21 09:51:21;;;;;;;0.50;0.50;;;;;;;30.15;35.72;98910.45;109604;1251;59978;-72
2023/07/21 09:53:49;;;;;;;0.90;0.60;;;;;;;29.98;36.41;98907.86;109563;1253;73870;-72
2023/07/21 09:56:15;;;;;;;1.90;0.40;;;;;;;29.81;36.86;98906.64;109578;1252;66528;-73
2023/07/21 09:58:46;;;;;;;1.10;0.50;;;;;;;29.59;36.83;98908.77;109444;1254;72795;-72
2023/07/21 10:01:13;;;;;;;3.60;0.70;;;;;;;29.56;37.30;98913.45;109541;1254;60162;-73
2023/07/21 10:03:40;;;;;;;2.70;0.40;;;;;;;29.33;37.19;98918.70;109541;1254;60178;-73
2023/07/21 10:06:06;;;;;;;1.30;0.50;;;;;;;29.09;37.70;98913.85;109607;1251;72539;-73
2023/07/21 10:08:33;;;;;;;0.90;0.40;;;;;;;29.14;38.52;98910.04;109560;1251;66598;-72
2023/07/21 10:11:00;;;;;;;0.30;0.30;;;;;;;29.75;37.41;98908.73;109583;1252;72734;-73
2023/07/21 10:13:27;;;;;;;0.50;0.30;;;;;;;30.64;35.40;98906.38;109560;1253;60814;-73
2023/07/21 10:16:06;;;;;;;0.70;0.40;;;;;;;31.37;33.86;98902.54;109595;1252;58732;-72
2023/07/21 10:18:33;;;;;;;2.20;0.40;;;;;;;31.95;33.07;98896.21;109592;1251;73965;-74
2023/07/21 10:21:00;;;;;;;0.40;0.30;;;;;;;32.23;32.74;98897.52;109631;1253;67942;-73
2023/07/21 10:23:37;;;;;;;0.80;0.40;;;;;;;32.23;33.17;98900.02;109545;1253;71396;-73
2023/07/21 10:26:08;;;;;;;0.50;0.50;;;;;;;32.21;33.25;98900.84;109448;1254;60186;-72
2023/07/21 10:28:43;;;;;;;0.40;0.40;;;;;;;32.37;33.11;98898.10;109605;1253;60230;-74
2023/07/21 10:31:22;;;;;;;1.00;0.50;;;;;;;32.53;33.20;98893.64;109583;1253;73980;-73
2023/07/21 10:34:12;;;;;;;2.00;0.60;;;;;;;32.58;32.89;98889.92;109592;1253;68554;-72
2023/07/21 10:36:51;;;;;;;2.60;0.40;;;;;;;32.43;33.35;98888.30;109515;1251;72573;-73
2023/07/21 10:39:22;;;;;;;0.80;0.40;;;;;;;32.08;33.53;98879.91;109596;1253;59567;-74
2023/07/21 10:41:55;;;;;;;1.80;0.60;;;;;;;31.55;33.89;98872.04;109619;1253;60329;-73
2023/07/21 10:44:22;;;;;;;2.20;0.60;;;;;;;30.92;34.58;98873.79;109559;1253;72557;-73
2023/07/21 10:46:51;;;;;;;2.20;0.50;;;;;;;30.33;35.27;98875.44;109633;1252;66988;-73
2023/07/21 10:49:19;;;;;;;0.80;0.50;;;;;;;29.91;35.69;98876.38;109556;1253;71841;-72
2023/07/21 10:51:47;;;;;;;1.20;0.40;;;;;;;29.52;36.53;98869.36;109590;1253;58933;-73
2023/07/21 10:54:14;;;;;;;0.40;0.40;;;;;;;29.23;37.38;98872.48;109578;1253;59247;-73
2023/07/21 10:56:43;;;;;;;2.00;0.80;;;;;;;28.99;38.54;98869.27;109545;1254;73683;-72
2023/07/21 10:59:14;;;;;;;0.40;0.40;;;;;;;28.71;39.53;98860.79;109572;1254;68182;-73
2023/07/21 11:01:46;;;;;;;0.70;0.50;;;;;;;28.51;41.03;98864.59;109556;1254;72618;-72
2023/07/21 11:04:22;;;;;;;0.60;0.50;;;;;;;28.41;41.73;98867.28;109602;1252;59073;-73
2023/07/21 11:06:56;;;;;;;2.60;0.90;;;;;;;28.30;41.28;98871.20;109607;1252;59495;-73
2023/07/21 11:09:24;;;;;;;0.60;0.60;;;;;;;28.18;41.36;98874.20;109545;1253;73876;-73
2023/07/21 11:11:52;;;;;;;2.50;0.60;;;;;;;28.03;41.53;98867.70;109608;1254;66526;-73
2023/07/21 11:14:24;;;;;;;0.90;0.60;;;;;;;27.97;42.27;98867.19;109576;1253;71992;-74
2023/07/21 11:16:59;;;;;;;0.80;0.30;;;;;;;27.91;42.88;98873.13;109551;1255;60362;-73
2023/07/21 11:19:32;;;;;;;1.10;0.60;;;;;;;27.81;43.01;98873.29;109559;1253;58943;-72
2023/07/21 11:21:59;;;;;;;1.40;0.80;;;;;;;27.69;42.47;98873.03;109576;1254;72168;-74
2023/07/21 11:24:28;;;;;;;0.40;0.40;;;;;;;27.58;42.78;98869.98;109580;1253;67801;-72
2023/07/21 11:26:59;;;;;;;1.00;0.40;;;;;;;27.43;43.83;98870.22;109631;1254;72680;-73
2023/07/21 11:29:29;;;;;;;0.60;0.60;;;;;;;27.34;44.19;98866.63;109577;1254;60345;-73
2023/07/21 11:31:56;;;;;;;0.70;0.60;;;;;;;27.24;44.54;98871.33;109615;1253;60376;-73